createdAt,value
2023-10-09T00:01:34.802Z,6.08
2023-10-09T00:04:38.325Z,6.09
2023-10-09T00:07:41.375Z,6.09
2023-10-09T00:11:06.299Z,6.13
2023-10-09T00:14:08.530Z,6.13
2023-10-09T00:17:13.500Z,5.87
2023-10-09T00:20:21.272Z,5.88
2023-10-09T00:23:26.762Z,6.00
2023-10-09T00:26:32.247Z,5.99
2023-10-09T00:29:38.048Z,5.99
2023-10-09T00:32:46.581Z,6.12
2023-10-09T00:35:55.673Z,5.99
2023-10-09T00:39:02.040Z,6.05
2023-10-09T00:42:07.558Z,6.16
2023-10-09T00:45:12.754Z,6.12
2023-10-09T00:48:23.064Z,6.27
2023-10-09T00:51:25.853Z,6.38
2023-10-09T00:54:29.760Z,6.40
2023-10-09T00:57:35.249Z,6.63
2023-10-09T01:00:46.696Z,6.71
2023-10-09T01:03:52.554Z,6.70
2023-10-09T01:07:09.549Z,6.83
2023-10-09T01:10:12.532Z,6.79
2023-10-09T01:13:14.837Z,6.90
2023-10-09T01:16:23.746Z,6.90
2023-10-09T01:19:26.341Z,6.97
2023-10-09T01:22:28.573Z,7.07
2023-10-09T01:25:42.996Z,7.21
2023-10-09T01:28:45.218Z,7.27
2023-10-09T01:31:52.044Z,7.25
2023-10-09T01:34:55.355Z,7.31
2023-10-09T01:37:58.576Z,7.38
2023-10-09T01:41:09.322Z,7.30
2023-10-09T01:44:13.356Z,7.30
2023-10-09T01:47:15.842Z,7.32
2023-10-09T01:50:23.400Z,7.31
2023-10-09T01:53:30.777Z,7.38
2023-10-09T01:56:38.091Z,7.39
2023-10-09T02:00:04.090Z,7.55
2023-10-09T02:03:13.901Z,7.47
2023-10-09T02:06:25.880Z,7.50
2023-10-09T02:09:31.974Z,7.46
2023-10-09T02:12:34.908Z,7.57
2023-10-09T02:15:45.188Z,7.62
2023-10-09T02:19:09.300Z,7.65
2023-10-09T02:22:14.085Z,7.60
2023-10-09T02:25:21.483Z,7.65
2023-10-09T02:28:24.408Z,7.54
2023-10-09T02:31:48.253Z,7.58
2023-10-09T02:34:54.630Z,7.75
2023-10-09T02:37:59.117Z,7.87
2023-10-09T02:41:04.193Z,8.01
2023-10-09T02:44:12.282Z,7.96
2023-10-09T02:47:39.389Z,7.98
2023-10-09T02:50:45.917Z,7.95
2023-10-09T02:53:50.981Z,7.98
2023-10-09T02:56:59.320Z,7.98
2023-10-09T03:00:01.606Z,8.04
2023-10-09T03:03:07.675Z,7.88
2023-10-09T03:06:12.423Z,7.95
2023-10-09T03:09:17.937Z,8.00
2023-10-09T03:12:20.300Z,7.94
2023-10-09T03:15:23.206Z,7.93
2023-10-09T03:18:25.730Z,7.91
2023-10-09T03:21:28.388Z,7.88
2023-10-09T03:24:32.104Z,7.85
2023-10-09T03:27:35.551Z,7.85
2023-10-09T03:30:41.421Z,7.97
2023-10-09T03:33:43.737Z,8.02
2023-10-09T03:36:49.493Z,7.93
2023-10-09T03:39:56.127Z,8.03
2023-10-09T03:42:58.998Z,8.11
2023-10-09T03:46:04.527Z,8.06
2023-10-09T03:49:12.042Z,8.03
2023-10-09T03:52:18.339Z,8.03
2023-10-09T03:55:23.166Z,8.21
2023-10-09T03:58:26.627Z,8.12
2023-10-09T04:01:29.663Z,8.11
2023-10-09T04:04:34.573Z,8.11
2023-10-09T04:07:37.995Z,8.15
2023-10-09T04:11:06.622Z,7.97
2023-10-09T04:14:13.428Z,8.03
2023-10-09T04:17:31.074Z,8.14
2023-10-09T04:20:33.401Z,8.09
2023-10-09T04:23:58.506Z,8.13
2023-10-09T04:27:03.881Z,8.11
2023-10-09T04:30:08.545Z,8.20
2023-10-09T04:33:19.106Z,8.23
2023-10-09T04:36:21.382Z,8.31
2023-10-09T04:39:33.028Z,8.10
2023-10-09T04:42:37.967Z,8.16
2023-10-09T04:45:42.750Z,8.24
2023-10-09T04:48:47.188Z,8.26
2023-10-09T04:52:05.658Z,8.45
2023-10-09T04:55:11.692Z,8.45
2023-10-09T04:58:24.917Z,8.52
2023-10-09T05:01:37.626Z,8.49
2023-10-09T05:04:40.213Z,8.50
2023-10-09T05:07:55.841Z,8.45
2023-10-09T05:11:00.018Z,8.44
2023-10-09T05:14:25.496Z,8.41
2023-10-09T05:17:27.733Z,8.44
2023-10-09T05:20:29.965Z,8.34
2023-10-09T05:23:45.506Z,8.43
2023-10-09T05:26:49.618Z,8.55
2023-10-09T05:30:10.456Z,8.57
2023-10-09T05:33:41.993Z,8.53
2023-10-09T05:36:48.933Z,8.56
2023-10-09T05:40:20.009Z,8.66
2023-10-09T05:43:41.585Z,8.72
2023-10-09T05:47:03.724Z,8.72
2023-10-09T05:50:06.552Z,8.78
2023-10-09T05:53:11.171Z,8.85
2023-10-09T05:56:32.499Z,9.00
2023-10-09T05:59:53.407Z,9.08
2023-10-09T06:03:14.372Z,9.06
2023-10-09T06:06:34.275Z,9.08
2023-10-09T06:09:51.007Z,9.04
2023-10-09T06:13:04.845Z,9.15
2023-10-09T06:16:20.734Z,9.26
2023-10-09T06:19:23.694Z,9.20
2023-10-09T06:22:52.254Z,9.32
2023-10-09T06:25:54.458Z,9.30
2023-10-09T06:29:15.376Z,9.32
2023-10-09T06:32:27.934Z,9.36
2023-10-09T06:35:32.754Z,9.45
2023-10-09T06:38:53.144Z,9.49
2023-10-09T06:42:10.212Z,9.51
2023-10-09T06:45:18.922Z,9.51
2023-10-09T06:48:36.584Z,9.54
2023-10-09T06:51:44.460Z,9.62
2023-10-09T06:54:50.995Z,9.69
2023-10-09T06:57:55.666Z,9.66
2023-10-09T07:01:00.725Z,9.57
2023-10-09T07:04:12.062Z,9.64
2023-10-09T07:07:17.684Z,9.60
2023-10-09T07:10:34.000Z,9.75
2023-10-09T07:13:38.245Z,9.65
2023-10-09T07:16:40.644Z,9.86
2023-10-09T07:20:04.491Z,9.88
2023-10-09T07:23:15.758Z,9.88
2023-10-09T07:26:24.402Z,9.91
2023-10-09T07:29:29.048Z,10.01
2023-10-09T07:32:33.085Z,10.08
2023-10-09T07:35:41.935Z,10.28
2023-10-09T07:38:45.697Z,10.41
2023-10-09T07:41:57.892Z,10.46
2023-10-09T07:45:13.113Z,10.50
2023-10-09T07:48:16.011Z,10.70
2023-10-09T07:51:21.131Z,10.96
2023-10-09T07:54:46.487Z,11.00
2023-10-09T07:57:53.285Z,10.99
2023-10-09T08:01:17.619Z,11.04
2023-10-09T08:04:38.696Z,11.13
2023-10-09T08:08:05.604Z,11.27
2023-10-09T08:11:32.839Z,11.08
2023-10-09T08:14:35.118Z,11.10
2023-10-09T08:17:38.907Z,11.33
2023-10-09T08:20:59.418Z,11.31
2023-10-09T08:24:06.160Z,11.27
2023-10-09T08:27:28.971Z,11.17
2023-10-09T08:30:42.311Z,11.25
2023-10-09T08:36:53.684Z,11.35
2023-10-09T08:39:56.066Z,11.40
2023-10-09T08:43:04.266Z,11.27
2023-10-09T08:46:06.583Z,11.31
2023-10-09T08:49:11.315Z,11.27
2023-10-09T08:52:14.496Z,11.20
2023-10-09T08:55:19.768Z,11.15
2023-10-09T08:58:26.173Z,11.29
2023-10-09T09:01:33.062Z,11.20
2023-10-09T09:04:37.992Z,11.21
2023-10-09T09:07:43.810Z,11.33
2023-10-09T09:10:48.183Z,11.38
2023-10-09T09:14:07.588Z,11.50
2023-10-09T09:17:12.630Z,11.57
2023-10-09T09:20:37.830Z,11.60
2023-10-09T09:23:55.732Z,11.42
2023-10-09T09:27:10.691Z,11.42
2023-10-09T09:30:32.842Z,11.47
2023-10-09T09:33:41.276Z,11.58
2023-10-09T09:36:59.734Z,11.84
2023-10-09T09:40:27.302Z,11.98
2023-10-09T09:43:32.255Z,12.27
2023-10-09T09:46:38.207Z,12.33
2023-10-09T09:49:44.358Z,12.33
2023-10-09T09:52:48.201Z,12.44
2023-10-09T09:56:01.137Z,12.38
2023-10-09T09:59:07.748Z,12.49
2023-10-09T10:02:19.038Z,12.54
2023-10-09T10:05:21.529Z,12.38
2023-10-09T10:08:32.530Z,12.64
2023-10-09T10:11:45.328Z,12.99
2023-10-09T10:15:00.411Z,13.32
2023-10-09T10:18:05.775Z,13.46
2023-10-09T10:21:30.897Z,12.87
2023-10-09T10:24:33.785Z,12.36
2023-10-09T10:27:46.200Z,11.96
2023-10-09T10:30:52.152Z,12.12
2023-10-09T10:33:57.234Z,12.14
2023-10-09T10:36:59.617Z,12.33
2023-10-09T10:40:02.482Z,12.67
2023-10-09T10:43:11.084Z,12.93
2023-10-09T10:46:16.714Z,13.26
2023-10-09T10:49:22.736Z,13.17
2023-10-09T10:52:42.965Z,13.62
2023-10-09T10:56:14.910Z,13.97
2023-10-09T10:59:24.169Z,14.21
2023-10-09T11:02:29.367Z,14.25
2023-10-09T11:05:40.023Z,14.07
2023-10-09T11:08:55.363Z,14.23
2023-10-09T11:12:13.901Z,14.28
2023-10-09T11:15:22.648Z,13.98
2023-10-09T11:18:28.737Z,13.82
2023-10-09T11:21:41.768Z,13.88
2023-10-09T11:24:45.214Z,13.99
2023-10-09T11:27:52.261Z,14.32
2023-10-09T11:30:56.783Z,14.10
2023-10-09T11:34:02.511Z,14.09
2023-10-09T11:37:16.793Z,14.09
2023-10-09T11:40:51.375Z,14.28
2023-10-09T11:43:55.492Z,14.21
2023-10-09T11:47:20.624Z,14.00
2023-10-09T11:50:44.283Z,14.15
2023-10-09T11:53:55.869Z,14.26
2023-10-09T11:57:02.153Z,14.15
2023-10-09T12:00:31.943Z,14.03
2023-10-09T12:03:34.664Z,13.88
2023-10-09T12:06:37.102Z,13.66
2023-10-09T12:09:39.385Z,13.76
2023-10-09T12:12:47.528Z,13.72
2023-10-09T12:15:53.673Z,13.60
2023-10-09T12:18:56.211Z,13.45
2023-10-09T12:22:01.381Z,13.43
2023-10-09T12:25:10.444Z,13.40
2023-10-09T12:28:15.999Z,13.35
2023-10-09T12:31:26.118Z,13.51
2023-10-09T12:34:28.577Z,13.87
2023-10-09T12:37:32.578Z,14.21
2023-10-09T12:40:34.828Z,14.37
2023-10-09T12:43:40.206Z,14.30
2023-10-09T12:46:43.866Z,14.13
2023-10-09T12:49:46.100Z,14.01
2023-10-09T12:52:51.774Z,13.91
2023-10-09T12:55:57.682Z,13.78
2023-10-09T12:59:06.067Z,13.77
2023-10-09T13:02:12.394Z,13.54
2023-10-09T13:05:27.225Z,13.49
2023-10-09T13:08:33.098Z,13.44
2023-10-09T13:11:37.680Z,13.33
2023-10-09T13:14:42.554Z,13.21
2023-10-09T13:17:44.841Z,13.07
2023-10-09T13:20:47.091Z,12.98
2023-10-09T13:23:51.213Z,12.83
2023-10-09T13:26:54.315Z,12.71
2023-10-09T13:30:06.537Z,12.76
2023-10-09T13:33:09.093Z,12.77
2023-10-09T13:36:20.366Z,12.64
2023-10-09T13:39:29.953Z,12.45
2023-10-09T13:42:32.141Z,12.37
2023-10-09T13:45:39.722Z,12.43
2023-10-09T13:48:46.387Z,12.46
2023-10-09T13:51:48.752Z,12.67
2023-10-09T13:54:51.647Z,12.77
2023-10-09T13:57:58.645Z,12.75
2023-10-09T14:01:00.869Z,12.77
2023-10-09T14:04:07.330Z,12.71
2023-10-09T14:07:09.736Z,12.81
2023-10-09T14:10:26.963Z,12.90
2023-10-09T14:13:29.640Z,12.97
2023-10-09T14:16:34.293Z,12.98
2023-10-09T14:19:36.616Z,12.90
2023-10-09T14:22:39.573Z,12.93
2023-10-09T14:25:41.956Z,12.80
2023-10-09T14:28:44.309Z,12.77
2023-10-09T14:32:01.165Z,12.60
2023-10-09T14:35:03.887Z,12.48
2023-10-09T14:38:12.635Z,12.59
2023-10-09T14:41:14.986Z,12.45
2023-10-09T14:44:17.739Z,12.15
2023-10-09T14:47:20.954Z,12.19
2023-10-09T14:50:23.414Z,11.84
2023-10-09T14:53:28.169Z,11.82
2023-10-09T14:56:30.496Z,12.03
2023-10-09T14:59:35.890Z,12.19
2023-10-09T15:02:38.156Z,12.26
2023-10-09T15:05:40.380Z,12.18
2023-10-09T15:08:42.640Z,12.18
2023-10-09T15:11:44.825Z,12.10
2023-10-09T15:14:46.982Z,12.05
2023-10-09T15:17:50.111Z,12.00
2023-10-09T15:20:52.956Z,11.79
2023-10-09T15:23:59.132Z,11.80
2023-10-09T15:27:01.364Z,11.61
2023-10-09T15:30:03.785Z,11.44
2023-10-09T15:33:06.724Z,11.32
2023-10-09T15:36:15.747Z,11.47
2023-10-09T15:39:20.578Z,11.64
2023-10-09T15:42:23.636Z,11.95
2023-10-09T15:45:29.401Z,11.76
2023-10-09T15:48:33.765Z,11.94
2023-10-09T15:51:36.531Z,11.86
2023-10-09T15:54:39.016Z,11.96
2023-10-09T15:57:43.185Z,11.83
2023-10-09T16:00:46.689Z,11.77
2023-10-09T16:03:49.410Z,11.60
2023-10-09T16:06:53.747Z,11.65
2023-10-09T16:09:56.618Z,11.68
2023-10-09T16:12:59.142Z,11.51
2023-10-09T16:16:02.288Z,11.59
2023-10-09T16:19:05.718Z,11.47
2023-10-09T16:22:09.336Z,11.35
2023-10-09T16:25:12.388Z,11.25
2023-10-09T16:28:16.747Z,11.32
2023-10-09T16:31:24.482Z,11.28
2023-10-09T16:34:27.541Z,11.20
2023-10-09T16:37:29.958Z,11.10
2023-10-09T16:40:33.049Z,11.09
2023-10-09T16:43:44.692Z,11.12
2023-10-09T16:46:47.644Z,11.16
2023-10-09T16:49:52.792Z,11.12
2023-10-09T16:52:55.820Z,11.14
2023-10-09T16:55:58.578Z,11.18
2023-10-09T16:59:01.843Z,11.22
2023-10-09T17:02:08.735Z,11.20
2023-10-09T17:05:13.674Z,11.17
2023-10-09T17:08:16.013Z,11.15
2023-10-09T17:11:21.874Z,11.24
2023-10-09T17:14:27.570Z,11.25
2023-10-09T17:17:32.664Z,11.21
2023-10-09T17:20:41.896Z,11.47
2023-10-09T17:23:48.193Z,11.27
2023-10-09T17:26:52.300Z,11.30
2023-10-09T17:29:58.991Z,11.22
2023-10-09T17:33:01.396Z,11.09
2023-10-09T17:36:07.231Z,11.10
2023-10-09T17:39:09.625Z,10.95
2023-10-09T17:42:11.862Z,10.89
2023-10-09T17:45:23.091Z,10.64
2023-10-09T17:48:25.860Z,10.56
2023-10-09T17:51:28.188Z,10.40
2023-10-09T17:54:30.515Z,10.51
2023-10-09T17:57:35.807Z,10.72
2023-10-09T18:00:43.558Z,10.89
2023-10-09T18:03:47.427Z,10.87
2023-10-09T18:06:51.888Z,10.82
2023-10-09T18:09:57.098Z,10.71
2023-10-09T18:12:59.494Z,10.97
2023-10-09T18:16:09.579Z,10.81
2023-10-09T18:19:15.843Z,11.03
2023-10-09T18:22:19.992Z,10.88
2023-10-09T18:25:22.511Z,10.85
2023-10-09T18:28:26.333Z,10.72
2023-10-09T18:31:28.872Z,10.42
2023-10-09T18:34:31.560Z,10.32
2023-10-09T18:37:34.038Z,10.37
2023-10-09T18:40:40.053Z,10.32
2023-10-09T18:43:49.617Z,10.38
2023-10-09T18:46:56.296Z,10.33
2023-10-09T18:49:59.909Z,10.21
2023-10-09T18:53:03.545Z,10.26
2023-10-09T18:56:16.921Z,10.09
2023-10-09T18:59:24.498Z,10.00
2023-10-09T19:02:27.322Z,9.81
2023-10-09T19:05:34.818Z,9.62
2023-10-09T19:08:37.442Z,9.49
2023-10-09T19:11:40.984Z,9.13
2023-10-09T19:14:43.208Z,9.05
2023-10-09T19:17:46.364Z,9.07
2023-10-09T19:20:49.034Z,8.87
2023-10-09T19:23:51.274Z,8.85
2023-10-09T19:26:53.496Z,8.94
2023-10-09T19:29:56.580Z,8.79
2023-10-09T19:33:00.851Z,8.68
2023-10-09T19:36:15.202Z,8.54
2023-10-09T19:39:18.377Z,8.63
2023-10-09T19:42:22.174Z,8.56
2023-10-09T19:45:27.506Z,8.36
2023-10-09T19:48:30.081Z,8.28
2023-10-09T19:51:32.566Z,8.00
2023-10-09T19:54:40.301Z,7.75
2023-10-09T19:57:45.371Z,7.90
2023-10-09T20:00:47.677Z,7.82
2023-10-09T20:03:50.219Z,7.95
2023-10-09T20:06:52.461Z,7.97
2023-10-09T20:09:59.156Z,7.89
2023-10-09T20:13:05.076Z,7.97
2023-10-09T20:16:10.256Z,7.75
2023-10-09T20:19:12.930Z,7.93
2023-10-09T20:22:15.230Z,8.13
2023-10-09T20:25:18.438Z,8.07
2023-10-09T20:28:20.782Z,8.20
2023-10-09T20:31:24.491Z,8.29
2023-10-09T20:34:27.506Z,8.19
2023-10-09T20:37:29.697Z,8.13
2023-10-09T20:40:31.939Z,8.21
2023-10-09T20:43:34.394Z,7.98
2023-10-09T20:46:37.535Z,8.01
2023-10-09T20:49:44.243Z,7.95
2023-10-09T20:52:48.058Z,8.05
2023-10-09T20:55:51.958Z,8.21
2023-10-09T20:58:55.559Z,8.27
2023-10-09T21:01:57.937Z,8.19
2023-10-09T21:05:00.425Z,8.04
2023-10-09T21:08:02.856Z,7.92
2023-10-09T21:11:05.915Z,7.91
2023-10-09T21:14:08.416Z,7.91
2023-10-09T21:17:10.887Z,7.98
2023-10-09T21:20:17.663Z,8.00
2023-10-09T21:23:21.645Z,7.86
2023-10-09T21:26:24.663Z,7.99
2023-10-09T21:29:27.035Z,8.03
2023-10-09T21:32:29.391Z,8.14
2023-10-09T21:35:31.758Z,8.03
2023-10-09T21:38:33.998Z,8.12
2023-10-09T21:41:36.224Z,8.13
2023-10-09T21:44:39.289Z,8.11
2023-10-09T21:47:41.613Z,8.21
2023-10-09T21:50:44.542Z,8.25
2023-10-09T21:53:46.888Z,7.94
2023-10-09T21:56:49.237Z,8.15
2023-10-09T21:59:51.513Z,8.21
2023-10-09T22:02:54.346Z,8.20
2023-10-09T22:05:57.260Z,8.08
2023-10-09T22:08:59.705Z,8.10
2023-10-09T22:12:02.403Z,8.06
2023-10-09T22:15:06.801Z,8.18
2023-10-09T22:18:12.463Z,8.15
2023-10-09T22:21:17.196Z,8.32
2023-10-09T22:24:19.680Z,8.43
2023-10-09T22:27:25.176Z,8.42
2023-10-09T22:30:30.587Z,8.45
2023-10-09T22:33:51.734Z,8.46
2023-10-09T22:36:55.344Z,8.44
2023-10-09T22:40:06.182Z,8.50
2023-10-09T22:43:15.698Z,8.54
2023-10-09T22:46:20.714Z,8.62
2023-10-09T22:49:26.296Z,8.61
2023-10-09T22:52:35.840Z,8.50
2023-10-09T22:55:52.484Z,8.60
2023-10-09T22:58:56.251Z,8.60
2023-10-09T23:02:01.546Z,8.54
2023-10-09T23:05:06.938Z,8.45
2023-10-09T23:08:17.860Z,8.49
2023-10-09T23:11:26.558Z,8.57
2023-10-09T23:14:29.102Z,8.74
2023-10-09T23:18:00.490Z,8.68
2023-10-09T23:21:20.995Z,8.73
2023-10-09T23:24:29.398Z,8.74
2023-10-09T23:27:43.691Z,8.72
2023-10-09T23:30:46.031Z,8.80
2023-10-09T23:33:52.514Z,8.85
2023-10-09T23:36:56.347Z,8.67
2023-10-09T23:39:58.672Z,8.72
2023-10-09T23:43:00.963Z,8.89
2023-10-09T23:46:09.140Z,8.90
2023-10-09T23:49:19.172Z,8.85
2023-10-09T23:52:25.052Z,8.68
2023-10-09T23:55:32.796Z,8.66
2023-10-09T23:58:46.940Z,8.59
